createdAt,value
2019-03-26T00:00:50.705Z,8.63
2019-03-26T00:03:20.341Z,14.67
2019-03-26T00:05:49.987Z,7.93
2019-03-26T00:08:19.660Z,6.27
2019-03-26T00:10:49.189Z,5.97
2019-03-26T00:13:18.785Z,9.07
2019-03-26T00:15:48.423Z,6.67
2019-03-26T00:18:18.019Z,7.90
2019-03-26T00:20:47.709Z,6.10
2019-03-26T00:23:17.375Z,5.67
2019-03-26T00:25:49.251Z,3.73
2019-03-26T00:28:18.966Z,4.77
2019-03-26T00:30:48.627Z,5.70
2019-03-26T00:33:18.512Z,2.50
2019-03-26T00:35:48.099Z,4.67
2019-03-26T00:38:17.747Z,9.83
2019-03-26T00:40:47.333Z,5.40
2019-03-26T00:43:16.921Z,5.93
2019-03-26T00:45:46.944Z,7.43
2019-03-26T00:48:16.587Z,6.67
2019-03-26T00:50:46.187Z,8.77
2019-03-26T00:53:15.875Z,6.13
2019-03-26T00:55:45.641Z,7.80
2019-03-26T00:58:15.363Z,7.77
2019-03-26T01:00:45.305Z,5.30
2019-03-26T01:03:15.047Z,7.67
2019-03-26T01:05:44.747Z,7.03
2019-03-26T01:08:14.600Z,5.97
2019-03-26T01:10:44.190Z,4.70
2019-03-26T01:13:13.895Z,7.27
2019-03-26T01:15:43.487Z,5.97
2019-03-26T01:18:13.229Z,5.33
2019-03-26T01:20:42.952Z,7.13
2019-03-26T01:23:12.532Z,6.23
2019-03-26T01:25:42.170Z,7.13
2019-03-26T01:28:11.822Z,7.43
2019-03-26T01:30:41.474Z,9.77
2019-03-26T01:33:13.186Z,7.47
2019-03-26T01:35:42.867Z,6.70
2019-03-26T01:38:12.452Z,6.20
2019-03-26T01:40:42.227Z,4.53
2019-03-26T01:43:11.945Z,6.27
2019-03-26T01:45:41.727Z,9.23
2019-03-26T01:48:11.434Z,7.67
2019-03-26T01:50:41.139Z,9.33
2019-03-26T01:53:10.893Z,9.37
2019-03-26T01:55:40.912Z,9.67
2019-03-26T01:58:11.925Z,9.73
2019-03-26T02:00:41.609Z,8.50
2019-03-26T02:03:13.104Z,9.93
2019-03-26T02:05:43.029Z,5.00
2019-03-26T02:08:15.795Z,12.43
2019-03-26T02:10:47.732Z,15.07
2019-03-26T02:13:17.741Z,7.47
2019-03-26T02:15:47.513Z,14.13
2019-03-26T02:18:17.162Z,9.83
2019-03-26T02:20:47.184Z,8.47
2019-03-26T02:23:17.196Z,8.80
2019-03-26T02:25:47.150Z,9.47
2019-03-26T02:28:17.018Z,9.50
2019-03-26T02:30:47.114Z,8.00
2019-03-26T02:33:16.974Z,9.47
2019-03-26T02:35:46.821Z,6.63
2019-03-26T02:38:17.091Z,9.33
2019-03-26T02:40:46.870Z,9.50
2019-03-26T02:43:16.847Z,9.07
2019-03-26T02:45:46.904Z,6.43
2019-03-26T02:48:17.090Z,7.03
2019-03-26T02:50:47.289Z,4.77
2019-03-26T02:53:17.718Z,7.97
2019-03-26T02:55:48.301Z,8.00
2019-03-26T02:58:18.613Z,6.53
2019-03-26T03:00:49.117Z,6.07
2019-03-26T03:03:20.474Z,4.87
2019-03-26T03:05:50.528Z,7.27
2019-03-26T03:08:20.527Z,6.50
2019-03-26T03:10:50.442Z,6.53
2019-03-26T03:13:20.328Z,3.83
2019-03-26T03:15:50.342Z,7.23
2019-03-26T03:18:21.182Z,6.73
2019-03-26T03:20:53.006Z,5.33
2019-03-26T03:23:22.781Z,4.37
2019-03-26T03:25:57.355Z,7.50
2019-03-26T03:28:29.220Z,6.50
2019-03-26T03:30:59.048Z,8.30
2019-03-26T03:33:31.266Z,4.70
2019-03-26T03:36:01.345Z,4.83
2019-03-26T03:38:31.311Z,4.33
2019-03-26T03:41:01.566Z,5.10
2019-03-26T03:43:31.452Z,4.57
2019-03-26T03:46:01.346Z,6.57
2019-03-26T03:48:31.026Z,3.27
2019-03-26T03:51:00.609Z,5.13
2019-03-26T03:53:34.261Z,4.67
2019-03-26T03:56:04.120Z,3.87
2019-03-26T03:58:34.759Z,8.33
2019-03-26T04:01:04.437Z,5.37
2019-03-26T04:03:35.427Z,7.93
2019-03-26T04:06:09.470Z,7.20
2019-03-26T04:08:40.313Z,5.43
2019-03-26T04:11:09.927Z,7.00
2019-03-26T04:13:41.022Z,3.60
2019-03-26T04:16:11.441Z,8.53
2019-03-26T04:18:43.229Z,3.97
2019-03-26T04:21:12.800Z,5.70
2019-03-26T04:23:43.768Z,8.83
2019-03-26T04:26:14.463Z,7.87
2019-03-26T04:28:44.915Z,6.73
2019-03-26T04:31:14.532Z,7.43
2019-03-26T04:33:45.940Z,4.30
2019-03-26T04:36:25.667Z,4.70
2019-03-26T04:38:46.969Z,4.73
2019-03-26T04:41:16.717Z,4.70
2019-03-26T04:43:47.688Z,5.50
2019-03-26T04:46:17.398Z,6.43
2019-03-26T04:48:47.058Z,3.50
2019-03-26T04:51:16.724Z,6.07
2019-03-26T04:53:46.450Z,5.23
2019-03-26T04:56:16.028Z,9.40
2019-03-26T04:58:49.579Z,6.33
2019-03-26T05:01:19.255Z,7.80
2019-03-26T05:03:50.062Z,7.20
2019-03-26T05:06:19.872Z,7.73
2019-03-26T05:08:51.762Z,8.93
2019-03-26T05:11:21.438Z,7.00
2019-03-26T05:13:54.048Z,6.23
2019-03-26T05:16:25.724Z,5.37
2019-03-26T05:18:57.601Z,6.83
2019-03-26T05:21:27.286Z,5.80
2019-03-26T05:23:58.117Z,8.87
2019-03-26T05:26:27.885Z,8.60
2019-03-26T05:29:02.332Z,7.60
2019-03-26T05:31:32.836Z,11.27
2019-03-26T05:34:05.097Z,9.80
2019-03-26T05:36:34.712Z,11.73
2019-03-26T05:39:05.803Z,9.47
2019-03-26T05:41:35.389Z,8.67
2019-03-26T05:44:05.678Z,9.03
2019-03-26T05:46:35.651Z,9.57
2019-03-26T05:49:09.114Z,10.20
2019-03-26T05:51:39.865Z,10.73
2019-03-26T05:54:09.532Z,8.00
2019-03-26T05:56:39.181Z,8.80
2019-03-26T05:59:08.828Z,7.37
2019-03-26T06:01:44.300Z,6.97
2019-03-26T06:04:13.942Z,11.60
2019-03-26T06:06:45.968Z,6.63
2019-03-26T06:09:15.553Z,7.57
2019-03-26T06:11:46.572Z,7.10
2019-03-26T06:14:22.906Z,8.70
2019-03-26T06:16:52.747Z,8.23
2019-03-26T06:19:22.433Z,9.63
2019-03-26T06:21:53.444Z,9.97
2019-03-26T06:24:23.365Z,10.27
2019-03-26T06:26:53.017Z,10.27
2019-03-26T06:29:22.684Z,9.63
2019-03-26T06:31:53.981Z,10.50
2019-03-26T06:34:23.849Z,7.43
2019-03-26T06:36:53.500Z,9.83
2019-03-26T06:39:23.411Z,8.53
2019-03-26T06:41:54.353Z,6.70
2019-03-26T06:44:23.985Z,10.37
2019-03-26T06:46:53.642Z,12.03
2019-03-26T06:49:23.469Z,14.77
2019-03-26T06:51:53.169Z,17.33
2019-03-26T06:54:22.694Z,19.93
2019-03-26T06:56:52.434Z,12.83
2019-03-26T06:59:22.080Z,10.77
2019-03-26T07:01:51.735Z,10.43
2019-03-26T07:04:21.352Z,10.83
2019-03-26T07:06:52.064Z,11.50
2019-03-26T07:09:21.788Z,10.87
2019-03-26T07:11:51.561Z,14.83
2019-03-26T07:14:21.103Z,12.93
2019-03-26T07:16:50.732Z,16.00
2019-03-26T07:19:20.461Z,13.30
2019-03-26T07:21:50.208Z,12.40
2019-03-26T07:24:19.930Z,9.87
2019-03-26T07:26:49.570Z,12.43
2019-03-26T07:29:19.176Z,10.47
2019-03-26T07:31:48.810Z,14.67
2019-03-26T07:34:18.528Z,9.90
2019-03-26T07:36:48.267Z,15.07
2019-03-26T07:39:18.000Z,10.57
2019-03-26T07:41:47.678Z,10.73
2019-03-26T07:44:17.425Z,12.73
2019-03-26T07:46:47.093Z,10.07
2019-03-26T07:49:16.776Z,11.60
2019-03-26T07:51:48.096Z,11.87
2019-03-26T07:54:18.420Z,13.27
2019-03-26T07:56:48.096Z,12.50
2019-03-26T07:59:17.858Z,13.80
2019-03-26T08:01:47.848Z,12.70
2019-03-26T08:04:17.549Z,14.10
2019-03-26T08:06:47.212Z,13.50
2019-03-26T08:09:17.204Z,15.00
2019-03-26T08:11:46.993Z,13.07
2019-03-26T08:14:18.132Z,17.33
2019-03-26T08:16:48.075Z,13.17
2019-03-26T08:19:17.693Z,11.20
2019-03-26T08:21:49.088Z,13.37
2019-03-26T08:24:19.758Z,13.93
2019-03-26T08:26:52.249Z,11.07
2019-03-26T08:29:22.555Z,13.43
2019-03-26T08:31:53.707Z,11.57
2019-03-26T08:34:23.379Z,11.03
2019-03-26T08:36:52.989Z,9.37
2019-03-26T08:39:23.665Z,6.77
2019-03-26T08:41:55.050Z,10.30
2019-03-26T08:44:24.800Z,9.00
2019-03-26T08:46:54.691Z,7.13
2019-03-26T08:49:30.622Z,11.87
2019-03-26T08:51:59.520Z,7.97
2019-03-26T08:54:29.504Z,9.70
2019-03-26T08:57:01.227Z,9.57
2019-03-26T08:59:30.889Z,9.43
2019-03-26T09:02:01.477Z,6.80
2019-03-26T09:04:31.087Z,10.07
2019-03-26T09:07:00.691Z,10.03
2019-03-26T09:09:30.307Z,10.53
2019-03-26T09:11:59.910Z,7.17
2019-03-26T09:14:29.505Z,9.47
2019-03-26T09:16:59.491Z,9.03
2019-03-26T09:19:29.089Z,8.33
2019-03-26T09:21:58.705Z,9.60
2019-03-26T09:24:30.641Z,8.30
2019-03-26T09:27:00.234Z,7.53
2019-03-26T09:29:29.785Z,9.57
2019-03-26T09:32:00.834Z,5.17
2019-03-26T09:34:30.451Z,8.37
2019-03-26T09:37:00.045Z,7.57
2019-03-26T09:39:29.712Z,9.73
2019-03-26T09:41:59.368Z,11.47
2019-03-26T09:44:28.974Z,10.13
2019-03-26T09:46:58.629Z,13.77
2019-03-26T09:49:28.315Z,9.43
2019-03-26T09:51:58.545Z,11.00
2019-03-26T09:54:28.746Z,9.80
2019-03-26T09:57:01.351Z,10.63
2019-03-26T09:59:32.106Z,11.17
2019-03-26T10:02:01.837Z,12.60
2019-03-26T10:04:32.568Z,10.83
2019-03-26T10:07:02.132Z,12.53
2019-03-26T10:09:31.770Z,13.73
2019-03-26T10:12:01.693Z,13.47
2019-03-26T10:14:31.415Z,12.70
2019-03-26T10:17:01.017Z,11.03
2019-03-26T10:19:30.709Z,13.87
2019-03-26T10:22:01.927Z,11.83
2019-03-26T10:24:31.551Z,12.97
2019-03-26T10:27:01.428Z,8.10
2019-03-26T10:29:31.380Z,7.27
2019-03-26T10:32:03.928Z,13.93
2019-03-26T10:34:36.451Z,11.63
2019-03-26T10:37:05.147Z,10.00
2019-03-26T10:39:34.753Z,9.10
2019-03-26T10:42:07.082Z,14.03
2019-03-26T10:44:36.822Z,7.63
2019-03-26T10:47:06.474Z,8.33
2019-03-26T10:49:36.430Z,7.73
2019-03-26T10:52:07.300Z,5.90
2019-03-26T10:54:36.902Z,7.40
2019-03-26T10:57:06.723Z,6.77
2019-03-26T10:59:36.376Z,9.67
2019-03-26T11:02:06.863Z,6.33
2019-03-26T11:04:36.541Z,6.97
2019-03-26T11:07:07.892Z,8.27
2019-03-26T11:09:37.456Z,4.20
2019-03-26T11:12:11.314Z,7.23
2019-03-26T11:14:40.885Z,6.73
2019-03-26T11:17:14.665Z,6.17
2019-03-26T11:19:46.342Z,9.90
2019-03-26T11:22:16.894Z,8.10
2019-03-26T11:24:48.600Z,3.97
2019-03-26T11:27:18.990Z,6.43
2019-03-26T11:29:48.559Z,8.57
2019-03-26T11:32:20.842Z,5.37
2019-03-26T11:34:50.452Z,22.40
2019-03-26T11:37:20.108Z,10.20
2019-03-26T11:39:49.689Z,10.67
2019-03-26T11:42:22.369Z,10.53
2019-03-26T11:44:52.267Z,6.93
2019-03-26T11:47:23.310Z,5.73
2019-03-26T11:49:53.724Z,6.73
2019-03-26T11:52:26.407Z,9.03
2019-03-26T11:54:58.161Z,7.00
2019-03-26T11:57:28.147Z,5.00
2019-03-26T11:59:59.828Z,4.37
2019-03-26T12:02:34.267Z,4.63
2019-03-26T12:05:07.535Z,5.77
2019-03-26T12:07:37.570Z,8.53
2019-03-26T12:10:07.945Z,22.73
2019-03-26T12:12:38.857Z,8.73
2019-03-26T12:15:08.533Z,7.67
2019-03-26T12:17:38.246Z,6.87
2019-03-26T12:20:08.616Z,7.73
2019-03-26T12:22:41.434Z,8.23
2019-03-26T12:25:11.058Z,5.40
2019-03-26T12:27:40.681Z,9.23
2019-03-26T12:30:10.249Z,8.67
2019-03-26T12:32:41.456Z,7.03
2019-03-26T12:35:14.050Z,10.63
2019-03-26T12:37:43.871Z,7.63
2019-03-26T12:40:16.147Z,10.10
2019-03-26T12:42:51.776Z,6.83
2019-03-26T12:45:21.827Z,8.47
2019-03-26T12:47:53.045Z,7.37
2019-03-26T12:50:24.810Z,7.10
2019-03-26T12:52:58.115Z,7.00
2019-03-26T12:55:28.509Z,8.70
2019-03-26T12:57:58.662Z,8.10
2019-03-26T13:00:32.930Z,7.83
2019-03-26T13:03:04.044Z,4.37
2019-03-26T13:05:33.626Z,5.40
2019-03-26T13:08:05.549Z,5.70
2019-03-26T13:10:35.120Z,6.30
2019-03-26T13:13:06.322Z,7.43
2019-03-26T13:15:35.940Z,7.17
2019-03-26T13:18:11.183Z,5.50
2019-03-26T13:20:40.656Z,7.40
2019-03-26T13:23:13.136Z,8.30
2019-03-26T13:25:42.760Z,5.90
2019-03-26T13:28:12.346Z,8.20
2019-03-26T13:30:41.975Z,8.00
2019-03-26T13:33:12.827Z,9.43
2019-03-26T13:35:42.404Z,9.53
2019-03-26T13:38:12.031Z,9.00
2019-03-26T13:40:41.734Z,9.93
2019-03-26T13:43:13.366Z,10.53
2019-03-26T13:45:44.334Z,10.37
2019-03-26T13:48:13.998Z,8.87
2019-03-26T13:50:43.690Z,9.63
2019-03-26T13:53:15.041Z,9.93
2019-03-26T13:55:46.669Z,7.73
2019-03-26T13:58:16.319Z,11.37
2019-03-26T14:00:45.991Z,8.03
2019-03-26T14:03:16.830Z,23.30
2019-03-26T14:05:46.366Z,14.87
2019-03-26T14:08:16.004Z,7.93
2019-03-26T14:10:45.669Z,7.10
2019-03-26T14:13:15.325Z,8.50
2019-03-26T14:15:45.327Z,7.97
2019-03-26T14:18:14.923Z,9.13
2019-03-26T14:20:44.566Z,8.93
2019-03-26T14:23:14.143Z,8.83
2019-03-26T14:25:43.946Z,9.27
2019-03-26T14:28:13.612Z,7.63
2019-03-26T14:30:44.615Z,7.03
2019-03-26T14:33:14.258Z,11.17
2019-03-26T14:35:46.514Z,8.30
2019-03-26T14:38:16.104Z,7.63
2019-03-26T14:40:54.545Z,7.07
2019-03-26T14:43:17.013Z,7.77
2019-03-26T14:45:46.866Z,9.00
2019-03-26T14:48:17.015Z,10.13
2019-03-26T14:50:51.339Z,9.73
2019-03-26T14:53:20.918Z,7.33
2019-03-26T14:55:50.558Z,10.07
2019-03-26T14:58:20.172Z,8.53
2019-03-26T15:00:49.787Z,11.27
2019-03-26T15:03:19.432Z,8.03
2019-03-26T15:05:49.152Z,8.37
2019-03-26T15:08:18.864Z,8.47
2019-03-26T15:10:49.457Z,9.67
2019-03-26T15:13:19.296Z,8.73
2019-03-26T15:15:49.112Z,8.20
2019-03-26T15:18:18.767Z,8.20
2019-03-26T15:20:48.494Z,6.53
2019-03-26T15:23:18.088Z,9.47
2019-03-26T15:25:48.650Z,6.50
2019-03-26T15:28:18.262Z,10.57
2019-03-26T15:30:47.913Z,7.93
2019-03-26T15:33:17.544Z,9.27
2019-03-26T15:35:48.053Z,8.33
2019-03-26T15:38:17.599Z,6.93
2019-03-26T15:40:47.178Z,6.20
2019-03-26T15:43:18.010Z,8.37
2019-03-26T15:45:48.690Z,8.70
2019-03-26T15:48:18.309Z,9.67
2019-03-26T15:50:47.963Z,6.03
2019-03-26T15:53:18.807Z,7.53
2019-03-26T15:55:48.403Z,7.20
2019-03-26T15:58:17.988Z,8.00
2019-03-26T16:00:47.571Z,11.13
2019-03-26T16:03:17.758Z,9.33
2019-03-26T16:05:47.435Z,6.50
2019-03-26T16:08:17.102Z,8.20
2019-03-26T16:10:46.754Z,10.20
2019-03-26T16:13:16.563Z,8.17
2019-03-26T16:15:46.172Z,5.93
2019-03-26T16:18:16.123Z,10.47
2019-03-26T16:20:45.778Z,6.20
2019-03-26T16:23:15.380Z,9.63
2019-03-26T16:25:47.097Z,6.30
2019-03-26T16:28:16.982Z,6.37
2019-03-26T16:30:46.578Z,7.60
2019-03-26T16:33:18.057Z,8.83
2019-03-26T16:35:49.002Z,7.03
2019-03-26T16:38:19.914Z,7.33
2019-03-26T16:41:00.589Z,6.43
2019-03-26T16:43:31.612Z,8.63
2019-03-26T16:46:01.300Z,6.17
2019-03-26T16:48:30.981Z,7.17
2019-03-26T16:51:00.591Z,9.70
2019-03-26T16:53:30.166Z,7.63
2019-03-26T16:55:59.965Z,7.00
2019-03-26T16:58:29.522Z,8.30
2019-03-26T17:00:59.238Z,8.70
2019-03-26T17:03:31.864Z,9.27
2019-03-26T17:06:01.658Z,8.03
2019-03-26T17:08:32.465Z,8.30
2019-03-26T17:11:02.035Z,9.90
2019-03-26T17:13:34.222Z,8.27
2019-03-26T17:16:06.012Z,8.00
2019-03-26T17:18:36.161Z,7.70
2019-03-26T17:21:06.666Z,11.10
2019-03-26T17:23:36.278Z,7.83
2019-03-26T17:26:08.108Z,7.10
2019-03-26T17:28:37.839Z,14.40
2019-03-26T17:31:07.681Z,10.03
2019-03-26T17:33:38.477Z,12.47
2019-03-26T17:36:09.124Z,7.57
2019-03-26T17:38:38.640Z,8.00
2019-03-26T17:41:08.212Z,7.70
2019-03-26T17:43:37.846Z,10.27
2019-03-26T17:46:09.782Z,9.40
2019-03-26T17:48:39.388Z,8.00
2019-03-26T17:51:10.060Z,7.40
2019-03-26T17:53:42.233Z,11.80
2019-03-26T17:56:11.987Z,7.37
2019-03-26T17:58:41.531Z,6.47
2019-03-26T18:01:13.501Z,9.53
2019-03-26T18:03:44.493Z,8.47
2019-03-26T18:06:14.100Z,10.67
2019-03-26T18:08:43.795Z,8.63
2019-03-26T18:11:13.392Z,9.73
2019-03-26T18:13:42.942Z,12.23
2019-03-26T18:16:17.911Z,9.37
2019-03-26T18:19:06.685Z,7.17
2019-03-26T18:21:35.833Z,7.67
2019-03-26T18:24:08.529Z,10.60
2019-03-26T18:26:38.315Z,6.30
2019-03-26T18:29:08.051Z,9.30
2019-03-26T18:31:37.692Z,9.73
2019-03-26T18:34:10.410Z,8.20
2019-03-26T18:36:40.146Z,8.53
2019-03-26T18:39:10.055Z,8.47
2019-03-26T18:41:39.718Z,6.80
2019-03-26T18:44:09.435Z,9.43
2019-03-26T18:46:39.110Z,7.83
2019-03-26T18:49:08.777Z,7.47
2019-03-26T18:51:38.680Z,10.93
2019-03-26T18:54:08.820Z,10.50
2019-03-26T18:56:38.477Z,7.83
2019-03-26T18:59:08.108Z,9.13
2019-03-26T19:01:38.625Z,7.60
2019-03-26T19:04:08.767Z,8.33
2019-03-26T19:06:38.395Z,6.70
2019-03-26T19:09:08.948Z,5.10
2019-03-26T19:11:38.883Z,8.17
2019-03-26T19:14:09.862Z,4.90
2019-03-26T19:16:40.334Z,6.20
2019-03-26T19:19:09.980Z,7.13
2019-03-26T19:21:40.241Z,8.27
2019-03-26T19:24:11.114Z,9.33
2019-03-26T19:26:41.253Z,6.60
2019-03-26T19:29:12.979Z,5.73
2019-03-26T19:31:42.649Z,8.33
2019-03-26T19:34:13.816Z,5.37
2019-03-26T19:36:45.381Z,9.77
2019-03-26T19:39:15.179Z,8.20
2019-03-26T19:41:44.842Z,8.33
2019-03-26T19:44:14.577Z,8.27
2019-03-26T19:46:46.852Z,7.07
2019-03-26T19:49:16.492Z,8.83
2019-03-26T19:51:46.545Z,7.83
2019-03-26T19:54:17.219Z,10.10
2019-03-26T19:56:49.345Z,13.57
2019-03-26T19:59:19.165Z,9.80
2019-03-26T20:01:48.793Z,8.53
2019-03-26T20:04:19.042Z,9.60
2019-03-26T20:06:50.316Z,9.27
2019-03-26T20:09:20.369Z,11.40
2019-03-26T20:11:50.140Z,11.07
2019-03-26T20:14:19.659Z,9.90
2019-03-26T20:16:50.487Z,10.07
2019-03-26T20:19:20.119Z,10.77
2019-03-26T20:21:50.420Z,13.03
2019-03-26T20:24:20.055Z,12.73
2019-03-26T20:26:51.530Z,13.37
2019-03-26T20:29:23.435Z,11.77
2019-03-26T20:31:53.888Z,9.67
2019-03-26T20:34:23.771Z,11.07
2019-03-26T20:36:54.839Z,9.73
2019-03-26T20:39:25.656Z,8.93
2019-03-26T20:41:55.570Z,13.17
2019-03-26T20:44:27.494Z,9.00
2019-03-26T20:46:58.369Z,12.17
2019-03-26T20:49:28.319Z,9.33
2019-03-26T20:51:57.991Z,9.70
2019-03-26T20:54:27.588Z,9.13
2019-03-26T20:56:58.207Z,10.37
2019-03-26T20:59:27.760Z,6.50
2019-03-26T21:01:57.661Z,10.40
2019-03-26T21:04:27.551Z,9.73
2019-03-26T21:06:59.884Z,8.70
2019-03-26T21:09:29.524Z,9.10
2019-03-26T21:12:00.313Z,9.20
2019-03-26T21:14:30.724Z,10.30
2019-03-26T21:17:01.838Z,15.47
2019-03-26T21:19:31.851Z,12.20
2019-03-26T21:22:01.750Z,11.77
2019-03-26T21:24:31.297Z,8.97
2019-03-26T21:27:02.506Z,11.33
2019-03-26T21:29:32.879Z,10.10
2019-03-26T21:32:03.607Z,7.67
2019-03-26T21:34:33.218Z,10.10
2019-03-26T21:37:04.464Z,8.90
2019-03-26T21:39:34.451Z,9.87
2019-03-26T21:42:04.504Z,9.97
2019-03-26T21:44:34.402Z,10.77
2019-03-26T21:47:05.184Z,10.07
2019-03-26T21:49:35.107Z,9.13
2019-03-26T21:52:05.041Z,5.43
2019-03-26T21:54:34.657Z,9.97
2019-03-26T21:57:06.056Z,9.17
2019-03-26T21:59:35.697Z,7.70
2019-03-26T22:02:05.400Z,10.07
2019-03-26T22:04:36.245Z,11.00
2019-03-26T22:07:08.223Z,8.27
2019-03-26T22:09:37.792Z,8.13
2019-03-26T22:12:09.813Z,9.87
2019-03-26T22:14:40.713Z,12.30
2019-03-26T22:17:10.346Z,8.90
2019-03-26T22:19:40.076Z,7.13
2019-03-26T22:22:09.733Z,11.00
2019-03-26T22:24:39.458Z,12.67
2019-03-26T22:27:09.111Z,9.27
2019-03-26T22:29:40.249Z,11.13
2019-03-26T22:32:10.407Z,20.00
2019-03-26T22:34:41.085Z,24.03
2019-03-26T22:37:10.725Z,28.73
2019-03-26T22:39:40.827Z,21.90
2019-03-26T22:42:11.708Z,15.57
2019-03-26T22:44:41.538Z,10.20
2019-03-26T22:47:12.043Z,9.00
2019-03-26T22:49:51.838Z,13.60
2019-03-26T22:52:22.043Z,12.67
2019-03-26T22:54:52.093Z,14.57
2019-03-26T22:57:21.866Z,12.77
2019-03-26T22:59:54.049Z,11.40
2019-03-26T23:02:24.633Z,13.33
2019-03-26T23:04:55.949Z,13.33
2019-03-26T23:07:26.428Z,13.30
2019-03-26T23:09:56.067Z,15.37
2019-03-26T23:12:25.794Z,9.83
2019-03-26T23:14:56.744Z,11.63
2019-03-26T23:17:26.357Z,12.73
2019-03-26T23:19:55.946Z,13.80
2019-03-26T23:22:28.161Z,12.50
2019-03-26T23:24:57.799Z,11.87
2019-03-26T23:27:27.434Z,13.23
2019-03-26T23:29:57.002Z,12.93
2019-03-26T23:32:26.719Z,14.43
2019-03-26T23:34:56.510Z,12.83
2019-03-26T23:37:26.586Z,15.77
2019-03-26T23:39:56.211Z,16.20
2019-03-26T23:42:25.922Z,14.97
2019-03-26T23:44:58.469Z,14.50
2019-03-26T23:47:26.901Z,13.70
2019-03-26T23:49:56.491Z,15.63
2019-03-26T23:52:26.242Z,11.63
2019-03-26T23:54:57.282Z,11.30
2019-03-26T23:57:30.590Z,14.03
